createdAt,value
2019-03-31T00:02:19.094Z,10.50
2019-03-31T00:04:46.857Z,10.50
2019-03-31T00:07:14.401Z,10.60
2019-03-31T00:09:42.080Z,10.70
2019-03-31T00:12:09.634Z,10.90
2019-03-31T00:14:37.290Z,10.70
2019-03-31T00:17:04.820Z,10.70
2019-03-31T00:19:32.621Z,10.70
2019-03-31T00:22:00.229Z,10.50
2019-03-31T00:24:28.145Z,10.40
2019-03-31T00:26:55.658Z,10.30
2019-03-31T00:29:23.201Z,10.30
2019-03-31T00:31:51.043Z,10.20
2019-03-31T00:34:18.491Z,10.30
2019-03-31T00:36:46.152Z,10.30
2019-03-31T00:39:13.609Z,10.20
2019-03-31T00:41:41.070Z,10.20
2019-03-31T00:44:08.903Z,10.20
2019-03-31T00:46:36.326Z,10.20
2019-03-31T00:49:04.161Z,10.40
2019-03-31T00:51:31.565Z,10.30
2019-03-31T00:53:59.329Z,10.40
2019-03-31T00:56:26.762Z,10.50
2019-03-31T00:58:54.204Z,10.40
2019-03-31T01:01:43.120Z,10.20
2019-03-31T01:04:11.233Z,10.10
2019-03-31T01:06:39.448Z,9.90
2019-03-31T01:09:22.968Z,9.80
2019-03-31T01:11:50.838Z,9.70
2019-03-31T01:14:18.559Z,9.70
2019-03-31T01:16:46.392Z,9.70
2019-03-31T01:19:14.585Z,9.70
2019-03-31T01:21:42.131Z,9.70
2019-03-31T01:24:09.525Z,9.70
2019-03-31T01:26:37.193Z,9.80
2019-03-31T01:29:38.784Z,9.90
2019-03-31T01:32:06.613Z,9.90
2019-03-31T01:34:34.472Z,9.90
2019-03-31T01:37:01.987Z,9.90
2019-03-31T01:39:30.047Z,9.90
2019-03-31T01:41:57.677Z,9.80
2019-03-31T01:44:25.530Z,9.80
2019-03-31T01:46:53.115Z,9.80
2019-03-31T01:49:20.674Z,9.70
2019-03-31T01:51:49.160Z,9.60
2019-03-31T01:54:17.602Z,9.50
2019-03-31T01:56:45.837Z,9.50
2019-03-31T01:59:14.839Z,9.40
2019-03-31T02:01:42.450Z,9.50
2019-03-31T02:04:10.110Z,9.40
2019-03-31T02:06:37.799Z,9.40
2019-03-31T02:09:06.258Z,9.50
2019-03-31T02:11:35.261Z,9.50
2019-03-31T02:14:03.220Z,9.50
2019-03-31T02:16:30.836Z,9.50
2019-03-31T02:18:58.253Z,9.40
2019-03-31T02:21:25.731Z,9.30
2019-03-31T02:23:53.425Z,9.30
2019-03-31T02:26:20.857Z,9.40
2019-03-31T02:28:48.304Z,9.50
2019-03-31T02:31:16.089Z,9.40
2019-03-31T02:33:44.151Z,9.40
2019-03-31T02:36:12.094Z,9.40
2019-03-31T02:38:39.851Z,9.30
2019-03-31T02:41:07.914Z,9.30
2019-03-31T02:43:35.302Z,9.40
2019-03-31T02:46:02.937Z,9.40
2019-03-31T02:48:30.337Z,9.40
2019-03-31T02:50:58.103Z,9.40
2019-03-31T02:53:25.727Z,9.40
2019-03-31T02:55:54.620Z,9.50
2019-03-31T02:58:22.318Z,9.50
2019-03-31T03:00:49.988Z,9.50
2019-03-31T03:03:19.583Z,9.60
2019-03-31T03:05:48.693Z,9.60
2019-03-31T03:08:20.009Z,9.60
2019-03-31T03:10:53.470Z,9.60
2019-03-31T03:13:23.809Z,9.60
2019-03-31T03:16:26.080Z,9.50
2019-03-31T03:18:53.866Z,9.50
2019-03-31T03:21:24.125Z,9.50
2019-03-31T03:23:52.191Z,9.40
2019-03-31T03:26:19.956Z,9.20
2019-03-31T03:28:47.875Z,9.10
2019-03-31T03:31:16.964Z,9.10
2019-03-31T03:33:44.914Z,8.90
2019-03-31T03:36:13.172Z,8.90
2019-03-31T03:38:40.990Z,8.90
2019-03-31T03:41:08.769Z,8.90
2019-03-31T03:43:53.644Z,9.10
2019-03-31T03:46:05.818Z,9.10
2019-03-31T03:48:33.556Z,9.00
2019-03-31T03:51:01.562Z,8.70
2019-03-31T03:53:29.140Z,8.40
2019-03-31T03:55:56.564Z,8.30
2019-03-31T03:58:24.062Z,8.20
2019-03-31T04:00:51.586Z,8.20
2019-03-31T04:03:29.864Z,8.50
2019-03-31T04:05:48.652Z,8.40
2019-03-31T04:08:16.458Z,8.20
2019-03-31T04:11:09.207Z,8.00
2019-03-31T04:13:36.726Z,8.20
2019-03-31T04:16:04.235Z,8.20
2019-03-31T04:18:31.653Z,8.10
2019-03-31T04:20:59.109Z,8.10
2019-03-31T04:23:26.543Z,7.90
2019-03-31T04:25:53.997Z,7.90
2019-03-31T04:28:21.512Z,7.70
2019-03-31T04:30:49.142Z,7.70
2019-03-31T04:33:16.578Z,7.60
2019-03-31T04:35:43.994Z,7.60
2019-03-31T04:38:11.393Z,7.60
2019-03-31T04:40:38.943Z,7.80
2019-03-31T04:43:06.327Z,7.80
2019-03-31T04:45:33.773Z,7.70
2019-03-31T04:48:02.248Z,7.70
2019-03-31T04:50:29.697Z,7.60
2019-03-31T04:52:57.086Z,7.70
2019-03-31T04:55:24.825Z,7.90
2019-03-31T04:57:53.586Z,7.90
2019-03-31T05:00:21.029Z,8.00
2019-03-31T05:02:48.748Z,8.00
2019-03-31T05:05:16.176Z,8.00
2019-03-31T05:07:44.137Z,8.20
2019-03-31T05:10:11.800Z,8.10
2019-03-31T05:12:39.229Z,7.80
2019-03-31T05:15:06.897Z,7.50
2019-03-31T05:17:35.898Z,7.40
2019-03-31T05:20:03.882Z,7.40
2019-03-31T05:22:31.526Z,7.40
2019-03-31T05:24:58.935Z,7.40
2019-03-31T05:27:26.407Z,7.40
2019-03-31T05:29:54.246Z,7.40
2019-03-31T05:32:22.673Z,7.40
2019-03-31T05:34:50.179Z,7.30
2019-03-31T05:37:18.173Z,7.20
2019-03-31T05:39:45.784Z,7.20
2019-03-31T05:42:13.221Z,7.20
2019-03-31T05:44:40.626Z,7.40
2019-03-31T05:47:08.159Z,7.50
2019-03-31T05:49:35.581Z,7.60
2019-03-31T05:52:03.151Z,7.60
2019-03-31T05:54:30.819Z,7.60
2019-03-31T05:56:58.356Z,7.50
2019-03-31T05:59:26.930Z,7.70
2019-03-31T06:01:54.377Z,7.80
2019-03-31T06:04:32.668Z,7.90
2019-03-31T06:06:51.373Z,8.00
2019-03-31T06:09:18.785Z,8.00
2019-03-31T06:11:46.776Z,8.10
2019-03-31T06:14:14.577Z,8.20
2019-03-31T06:16:42.382Z,8.20
2019-03-31T06:19:10.246Z,8.10
2019-03-31T06:21:37.741Z,8.10
2019-03-31T06:24:05.340Z,8.30
2019-03-31T06:26:32.753Z,8.30
2019-03-31T06:29:00.202Z,8.30
2019-03-31T06:31:27.611Z,8.40
2019-03-31T06:33:55.329Z,8.50
2019-03-31T06:36:22.965Z,8.50
2019-03-31T06:38:50.405Z,8.60
2019-03-31T06:41:17.833Z,8.70
2019-03-31T06:43:45.278Z,8.80
2019-03-31T06:46:12.929Z,8.90
2019-03-31T06:48:40.355Z,8.90
2019-03-31T06:51:07.779Z,8.90
2019-03-31T06:53:35.296Z,9.00
2019-03-31T06:56:03.494Z,9.10
2019-03-31T06:58:30.949Z,9.40
2019-03-31T07:00:58.566Z,9.60
2019-03-31T07:03:26.320Z,9.90
2019-03-31T07:05:53.754Z,10.10
2019-03-31T07:08:21.794Z,10.30
2019-03-31T07:10:49.273Z,10.50
2019-03-31T07:13:16.825Z,10.60
2019-03-31T07:15:44.329Z,10.80
2019-03-31T07:18:15.918Z,11.00
2019-03-31T07:20:42.539Z,11.10
2019-03-31T07:23:10.113Z,11.30
2019-03-31T07:25:37.590Z,11.50
2019-03-31T07:28:05.174Z,11.80
2019-03-31T07:30:32.853Z,12.10
2019-03-31T07:33:00.556Z,12.30
2019-03-31T07:35:28.065Z,12.80
2019-03-31T07:37:55.632Z,13.00
2019-03-31T07:40:23.643Z,13.10
2019-03-31T07:42:51.572Z,13.50
2019-03-31T07:45:19.767Z,13.70
2019-03-31T07:47:47.662Z,13.90
2019-03-31T07:50:16.379Z,13.90
2019-03-31T07:52:44.173Z,13.80
2019-03-31T07:55:12.397Z,13.90
2019-03-31T07:57:40.106Z,14.20
2019-03-31T08:00:10.203Z,14.40
2019-03-31T08:02:37.662Z,14.80
2019-03-31T08:05:06.910Z,15.10
2019-03-31T08:07:34.326Z,15.30
2019-03-31T08:10:01.987Z,15.50
2019-03-31T08:12:30.888Z,15.50
2019-03-31T08:14:58.477Z,15.70
2019-03-31T08:17:25.979Z,15.70
2019-03-31T08:19:54.018Z,15.70
2019-03-31T08:22:21.721Z,15.80
2019-03-31T08:24:49.414Z,15.90
2019-03-31T08:27:17.147Z,16.10
2019-03-31T08:29:44.712Z,16.30
2019-03-31T08:32:13.079Z,16.20
2019-03-31T08:34:40.657Z,16.20
2019-03-31T08:37:08.360Z,16.20
2019-03-31T08:39:36.334Z,16.20
2019-03-31T08:42:04.175Z,16.30
2019-03-31T08:44:31.734Z,16.40
2019-03-31T08:46:59.136Z,16.50
2019-03-31T08:49:26.665Z,16.60
2019-03-31T08:51:54.163Z,16.70
2019-03-31T08:54:22.120Z,16.70
2019-03-31T08:57:21.865Z,16.80
2019-03-31T08:59:49.279Z,16.80
2019-03-31T09:02:25.054Z,16.90
2019-03-31T09:04:52.561Z,16.90
2019-03-31T09:07:19.958Z,16.90
2019-03-31T09:09:47.380Z,17.00
2019-03-31T09:12:15.079Z,17.00
2019-03-31T09:14:43.014Z,17.00
2019-03-31T09:17:10.559Z,17.00
2019-03-31T09:19:38.107Z,16.90
2019-03-31T09:22:05.701Z,17.10
2019-03-31T09:24:33.302Z,17.20
2019-03-31T09:27:02.076Z,17.30
2019-03-31T09:29:29.634Z,17.20
2019-03-31T09:31:57.185Z,17.20
2019-03-31T09:34:25.742Z,17.30
2019-03-31T09:36:53.380Z,17.30
2019-03-31T09:39:21.026Z,17.60
2019-03-31T09:41:48.859Z,17.70
2019-03-31T09:44:16.678Z,17.80
2019-03-31T09:46:44.516Z,17.80
2019-03-31T09:49:12.377Z,18.00
2019-03-31T09:51:39.846Z,18.00
2019-03-31T09:54:07.557Z,18.20
2019-03-31T09:56:35.287Z,18.40
2019-03-31T09:59:03.062Z,18.70
2019-03-31T10:01:30.654Z,18.80
2019-03-31T10:03:58.471Z,19.10
2019-03-31T10:06:30.401Z,19.30
2019-03-31T10:08:55.722Z,19.60
2019-03-31T10:11:23.580Z,19.60
2019-03-31T10:13:51.458Z,19.50
2019-03-31T10:16:19.457Z,19.60
2019-03-31T10:18:47.105Z,19.70
2019-03-31T10:21:15.100Z,19.70
2019-03-31T10:23:42.548Z,19.70
2019-03-31T10:26:10.039Z,19.90
2019-03-31T10:28:37.629Z,19.90
2019-03-31T10:31:05.313Z,20.00
2019-03-31T10:33:33.096Z,20.00
2019-03-31T10:36:00.734Z,19.90
2019-03-31T10:38:28.365Z,19.90
2019-03-31T10:40:55.897Z,19.90
2019-03-31T10:43:23.361Z,19.90
2019-03-31T10:45:50.903Z,20.00
2019-03-31T10:48:20.705Z,20.00
2019-03-31T10:50:49.128Z,19.80
2019-03-31T10:53:16.730Z,19.80
2019-03-31T10:55:44.232Z,19.80
2019-03-31T10:58:11.762Z,19.80
2019-03-31T11:00:39.237Z,19.90
2019-03-31T11:03:07.473Z,20.10
2019-03-31T11:05:35.697Z,20.20
2019-03-31T11:08:04.333Z,20.20
2019-03-31T11:10:32.285Z,20.30
2019-03-31T11:12:59.915Z,20.20
2019-03-31T11:15:27.745Z,20.10
2019-03-31T11:17:55.219Z,20.20
2019-03-31T11:20:22.770Z,20.20
2019-03-31T11:22:55.062Z,20.20
2019-03-31T11:25:27.496Z,20.30
2019-03-31T11:27:52.358Z,20.40
2019-03-31T11:30:20.417Z,20.50
2019-03-31T11:32:49.180Z,20.40
2019-03-31T11:35:16.726Z,20.50
2019-03-31T11:37:44.182Z,20.60
2019-03-31T11:40:11.981Z,20.60
2019-03-31T11:42:40.107Z,20.70
2019-03-31T11:45:08.162Z,20.70
2019-03-31T11:47:36.089Z,20.80
2019-03-31T11:50:05.345Z,20.90
2019-03-31T11:52:33.093Z,21.00
2019-03-31T11:55:00.635Z,21.00
2019-03-31T11:57:28.153Z,21.10
2019-03-31T11:59:56.069Z,21.30
2019-03-31T12:02:27.402Z,21.40
2019-03-31T12:04:54.290Z,21.60
2019-03-31T12:07:27.731Z,21.80
2019-03-31T12:09:51.577Z,21.90
2019-03-31T12:12:19.071Z,22.00
2019-03-31T12:14:59.827Z,22.20
2019-03-31T12:17:15.905Z,22.20
2019-03-31T12:19:44.847Z,22.00
2019-03-31T12:22:12.326Z,22.00
2019-03-31T12:24:40.093Z,22.10
2019-03-31T12:27:07.563Z,22.20
2019-03-31T12:29:34.980Z,22.30
2019-03-31T12:32:02.893Z,22.20
2019-03-31T12:34:30.490Z,22.40
2019-03-31T12:36:58.274Z,22.40
2019-03-31T12:39:26.209Z,22.40
2019-03-31T12:41:53.612Z,22.50
2019-03-31T12:44:21.343Z,22.80
2019-03-31T12:46:49.796Z,22.90
2019-03-31T12:49:17.266Z,22.90
2019-03-31T12:51:45.035Z,23.00
2019-03-31T12:54:12.606Z,23.00
2019-03-31T12:56:40.138Z,23.10
2019-03-31T12:59:07.616Z,23.10
2019-03-31T13:01:35.156Z,23.00
2019-03-31T13:04:02.855Z,23.00
2019-03-31T13:06:30.725Z,22.90
2019-03-31T13:08:58.313Z,22.90
2019-03-31T13:11:25.901Z,22.90
2019-03-31T13:13:53.334Z,23.00
2019-03-31T13:16:20.792Z,23.00
2019-03-31T13:18:48.222Z,23.10
2019-03-31T13:21:15.745Z,23.00
2019-03-31T13:23:43.281Z,23.00
2019-03-31T13:26:10.681Z,23.00
2019-03-31T13:28:38.106Z,23.00
2019-03-31T13:31:06.923Z,23.20
2019-03-31T13:33:34.449Z,23.20
2019-03-31T13:36:01.840Z,23.20
2019-03-31T13:38:29.488Z,23.20
2019-03-31T13:40:57.260Z,23.20
2019-03-31T13:43:25.487Z,23.00
2019-03-31T13:45:52.910Z,22.90
2019-03-31T13:48:20.563Z,22.60
2019-03-31T13:50:48.045Z,22.60
2019-03-31T13:53:21.561Z,22.70
2019-03-31T13:55:49.184Z,22.70
2019-03-31T13:58:18.987Z,22.70
2019-03-31T14:00:46.125Z,22.70
2019-03-31T14:03:13.918Z,22.60
2019-03-31T14:05:43.362Z,22.60
2019-03-31T14:08:24.647Z,22.70
2019-03-31T14:10:40.206Z,22.70
2019-03-31T14:13:08.141Z,22.80
2019-03-31T14:15:35.712Z,22.80
2019-03-31T14:18:03.325Z,22.70
2019-03-31T14:20:30.740Z,22.60
2019-03-31T14:22:58.550Z,22.60
2019-03-31T14:25:26.265Z,22.60
2019-03-31T14:27:53.795Z,22.60
2019-03-31T14:30:21.729Z,22.60
2019-03-31T14:32:49.717Z,22.40
2019-03-31T14:35:17.308Z,22.40
2019-03-31T14:37:44.693Z,22.30
2019-03-31T14:40:12.299Z,22.30
2019-03-31T14:42:39.850Z,22.30
2019-03-31T14:45:07.654Z,22.20
2019-03-31T14:47:35.074Z,22.20
2019-03-31T14:50:03.461Z,22.10
2019-03-31T14:52:31.316Z,22.10
2019-03-31T14:54:58.763Z,22.00
2019-03-31T14:57:26.306Z,22.00
2019-03-31T14:59:53.886Z,22.00
2019-03-31T15:02:21.389Z,21.80
2019-03-31T15:04:48.851Z,21.80
2019-03-31T15:07:16.473Z,21.60
2019-03-31T15:09:43.881Z,21.50
2019-03-31T15:12:11.629Z,21.40
2019-03-31T15:14:39.028Z,21.30
2019-03-31T15:17:06.473Z,21.20
2019-03-31T15:19:33.884Z,21.10
2019-03-31T15:22:01.325Z,21.10
2019-03-31T15:24:29.078Z,21.00
2019-03-31T15:26:56.559Z,21.00
2019-03-31T15:29:24.029Z,21.00
2019-03-31T15:31:52.064Z,20.90
2019-03-31T15:34:19.856Z,20.90
2019-03-31T15:36:47.604Z,20.80
2019-03-31T15:39:14.997Z,20.60
2019-03-31T15:41:42.456Z,20.50
2019-03-31T15:44:09.966Z,20.50
2019-03-31T15:46:37.549Z,20.30
2019-03-31T15:49:07.981Z,20.40
2019-03-31T15:51:35.534Z,20.40
2019-03-31T15:54:03.041Z,20.30
2019-03-31T15:56:30.557Z,20.30
2019-03-31T15:58:58.112Z,20.10
2019-03-31T16:01:25.935Z,20.00
2019-03-31T16:03:53.814Z,20.00
2019-03-31T16:06:21.794Z,19.90
2019-03-31T16:08:49.769Z,19.90
2019-03-31T16:11:16.704Z,19.90
2019-03-31T16:13:43.635Z,19.90
2019-03-31T16:16:14.020Z,19.80
2019-03-31T16:18:39.609Z,19.80
2019-03-31T16:21:06.509Z,19.60
2019-03-31T16:23:33.668Z,19.50
2019-03-31T16:26:01.173Z,19.40
2019-03-31T16:28:28.070Z,19.20
2019-03-31T16:30:54.955Z,19.00
2019-03-31T16:33:21.833Z,18.90
2019-03-31T16:35:48.810Z,18.70
2019-03-31T16:38:15.795Z,18.60
2019-03-31T16:40:42.679Z,18.40
2019-03-31T16:43:10.614Z,18.30
2019-03-31T16:45:37.590Z,18.20
2019-03-31T16:48:04.471Z,18.10
2019-03-31T16:50:31.309Z,18.00
2019-03-31T16:52:59.385Z,17.80
2019-03-31T16:55:26.680Z,17.70
2019-03-31T16:57:53.586Z,17.60
2019-03-31T17:00:21.035Z,17.50
2019-03-31T17:02:48.030Z,17.40
2019-03-31T17:05:21.678Z,17.30
2019-03-31T17:07:44.005Z,17.20
2019-03-31T17:10:11.322Z,17.00
2019-03-31T17:12:38.193Z,16.90
2019-03-31T17:15:07.601Z,16.90
2019-03-31T17:17:34.464Z,16.90
2019-03-31T17:20:02.086Z,16.80
2019-03-31T17:22:29.173Z,16.70
2019-03-31T17:24:56.227Z,16.60
2019-03-31T17:27:23.066Z,16.70
2019-03-31T17:29:49.929Z,16.70
2019-03-31T17:32:16.864Z,16.70
2019-03-31T17:34:43.794Z,16.60
2019-03-31T17:37:10.695Z,16.50
2019-03-31T17:39:37.671Z,16.40
2019-03-31T17:42:04.627Z,16.30
2019-03-31T17:44:33.501Z,16.20
2019-03-31T17:47:00.558Z,16.10
2019-03-31T17:49:27.771Z,16.00
2019-03-31T17:51:54.888Z,15.80
2019-03-31T17:54:21.929Z,15.70
2019-03-31T17:56:48.968Z,15.70
2019-03-31T17:59:15.934Z,15.70
2019-03-31T18:01:42.953Z,15.60
2019-03-31T18:04:09.817Z,15.60
2019-03-31T18:06:36.960Z,15.50
2019-03-31T18:09:06.466Z,15.40
2019-03-31T18:11:33.474Z,15.40
2019-03-31T18:14:00.491Z,15.30
2019-03-31T18:16:27.390Z,15.20
2019-03-31T18:18:54.250Z,15.20
2019-03-31T18:21:21.203Z,15.10
2019-03-31T18:23:48.140Z,15.00
2019-03-31T18:26:15.094Z,15.00
2019-03-31T18:28:43.770Z,15.00
2019-03-31T18:31:11.065Z,14.90
2019-03-31T18:33:38.082Z,14.80
2019-03-31T18:36:06.246Z,14.80
2019-03-31T18:38:33.490Z,14.80
2019-03-31T18:41:03.487Z,14.80
2019-03-31T18:43:29.491Z,14.80
2019-03-31T18:45:57.613Z,14.70
2019-03-31T18:48:24.508Z,14.70
2019-03-31T18:50:51.918Z,14.70
2019-03-31T18:53:33.616Z,14.70
2019-03-31T18:56:16.922Z,14.60
2019-03-31T18:58:56.722Z,14.50
2019-03-31T19:01:43.097Z,14.50
2019-03-31T19:04:32.450Z,14.50
2019-03-31T19:07:23.054Z,14.50
2019-03-31T19:10:03.784Z,14.40
2019-03-31T19:12:48.796Z,14.20
2019-03-31T19:15:35.598Z,14.10
2019-03-31T19:18:28.488Z,14.10
2019-03-31T19:21:13.368Z,14.00
2019-03-31T19:23:56.769Z,13.80
2019-03-31T19:26:52.786Z,13.80
2019-03-31T19:29:35.434Z,13.80
2019-03-31T19:32:23.268Z,13.70
2019-03-31T19:35:09.829Z,13.60
2019-03-31T19:38:08.465Z,13.60
2019-03-31T19:41:04.253Z,13.60
2019-03-31T19:43:46.056Z,13.50
2019-03-31T19:46:18.929Z,13.40
2019-03-31T19:49:12.979Z,13.30
2019-03-31T19:51:50.085Z,13.30
2019-03-31T19:54:27.103Z,13.20
2019-03-31T19:57:04.877Z,13.20
2019-03-31T19:59:50.080Z,13.20
2019-03-31T20:02:25.415Z,13.10
2019-03-31T20:05:11.559Z,13.00
2019-03-31T20:07:52.679Z,13.00
2019-03-31T20:10:37.853Z,12.80
2019-03-31T20:13:17.978Z,12.80
2019-03-31T20:16:16.629Z,12.70
2019-03-31T20:19:00.954Z,12.70
2019-03-31T20:21:42.492Z,12.70
2019-03-31T20:24:17.170Z,12.60
2019-03-31T20:26:53.539Z,12.60
2019-03-31T20:29:34.946Z,12.50
2019-03-31T20:32:20.217Z,12.40
2019-03-31T20:35:19.393Z,12.40
2019-03-31T20:38:04.570Z,12.40
2019-03-31T20:40:57.228Z,12.30
2019-03-31T20:43:39.790Z,12.30
2019-03-31T20:46:06.785Z,12.20
2019-03-31T20:48:33.716Z,12.30
2019-03-31T20:51:00.593Z,12.20
2019-03-31T20:53:27.597Z,12.20
2019-03-31T20:55:54.653Z,12.10
2019-03-31T20:58:21.602Z,12.10
2019-03-31T21:00:48.664Z,12.00
2019-03-31T21:03:15.680Z,12.00
2019-03-31T21:05:42.538Z,12.00
2019-03-31T21:08:09.681Z,11.90
2019-03-31T21:10:36.811Z,11.90
2019-03-31T21:13:03.692Z,12.00
2019-03-31T21:15:30.638Z,11.90
2019-03-31T21:17:58.811Z,11.80
2019-03-31T21:20:25.704Z,11.80
2019-03-31T21:22:52.732Z,12.00
2019-03-31T21:25:19.682Z,12.00
2019-03-31T21:27:46.994Z,11.90
2019-03-31T21:30:14.077Z,11.80
2019-03-31T21:32:41.005Z,11.80
2019-03-31T21:35:07.963Z,11.70
2019-03-31T21:37:34.829Z,11.70
2019-03-31T21:40:03.024Z,11.60
2019-03-31T21:42:29.887Z,11.70
2019-03-31T21:44:57.143Z,11.50
2019-03-31T21:47:24.059Z,11.50
2019-03-31T21:49:52.063Z,11.50
2019-03-31T21:52:18.939Z,11.50
2019-03-31T21:54:46.867Z,11.40
2019-03-31T21:57:13.719Z,11.40
2019-03-31T21:59:40.617Z,11.30
2019-03-31T22:02:07.657Z,11.30
2019-03-31T22:04:34.633Z,11.30
2019-03-31T22:07:01.751Z,11.30
2019-03-31T22:09:28.641Z,11.20
2019-03-31T22:11:55.716Z,11.20
2019-03-31T22:14:22.605Z,11.20
2019-03-31T22:16:50.052Z,11.20
2019-03-31T22:19:16.989Z,11.10
2019-03-31T22:21:43.954Z,11.10
2019-03-31T22:24:10.929Z,11.00
2019-03-31T22:26:38.227Z,11.00
2019-03-31T22:29:05.083Z,11.00
2019-03-31T22:31:31.961Z,11.00
2019-03-31T22:33:58.817Z,11.00
2019-03-31T22:36:26.301Z,11.00
2019-03-31T22:38:53.771Z,11.00
2019-03-31T22:41:20.941Z,10.90
2019-03-31T22:43:48.165Z,10.80
2019-03-31T22:46:15.225Z,10.70
2019-03-31T22:48:42.118Z,10.70
2019-03-31T22:51:09.409Z,10.70
2019-03-31T22:53:36.453Z,10.70
2019-03-31T22:56:03.315Z,10.60
2019-03-31T22:58:30.173Z,10.60
2019-03-31T23:00:57.218Z,10.50
2019-03-31T23:03:24.085Z,10.50
2019-03-31T23:05:51.020Z,10.50
2019-03-31T23:08:18.230Z,10.60
2019-03-31T23:10:45.393Z,10.50
2019-03-31T23:13:12.267Z,10.40
2019-03-31T23:15:39.470Z,10.40
2019-03-31T23:18:06.338Z,10.30
2019-03-31T23:20:33.338Z,10.30
2019-03-31T23:23:00.239Z,10.30
2019-03-31T23:25:27.242Z,10.40
2019-03-31T23:27:54.109Z,10.40
2019-03-31T23:30:20.957Z,10.30
2019-03-31T23:32:47.897Z,10.30
2019-03-31T23:35:14.786Z,10.20
2019-03-31T23:37:41.866Z,10.30
2019-03-31T23:40:09.403Z,10.20
2019-03-31T23:42:36.304Z,10.10
2019-03-31T23:45:03.988Z,10.20
2019-03-31T23:47:32.265Z,10.20
2019-03-31T23:49:59.123Z,10.10
2019-03-31T23:52:26.115Z,10.10
2019-03-31T23:54:53.325Z,10.00
2019-03-31T23:57:37.947Z,9.90
